sensor_id;sensor_type;location;lat;lon;timestamp;pressure;altitude;pressure_sealevel;temperature;humidity
47636;BME280;33364;50.766;15.338;2024-01-27T00:01:50;95774.34;;;1.51;85.10
47636;BME280;33364;50.766;15.338;2024-01-27T00:04:16;95785.13;;;1.55;85.23
47636;BME280;33364;50.766;15.338;2024-01-27T00:06:42;95790.78;;;1.52;85.40
47636;BME280;33364;50.766;15.338;2024-01-27T00:09:08;95773.75;;;1.49;84.67
47636;BME280;33364;50.766;15.338;2024-01-27T00:11:33;95780.56;;;1.50;85.71
47636;BME280;33364;50.766;15.338;2024-01-27T00:13:59;95785.84;;;1.37;84.37
47636;BME280;33364;50.766;15.338;2024-01-27T00:16:25;95778.63;;;1.39;84.39
47636;BME280;33364;50.766;15.338;2024-01-27T00:18:51;95796.38;;;1.49;85.66
47636;BME280;33364;50.766;15.338;2024-01-27T00:21:16;95795.41;;;1.43;83.47
47636;BME280;33364;50.766;15.338;2024-01-27T00:23:42;95799.84;;;1.43;82.21
47636;BME280;33364;50.766;15.338;2024-01-27T00:26:08;95801.25;;;1.39;80.51
47636;BME280;33364;50.766;15.338;2024-01-27T00:28:34;95790.44;;;1.42;81.05
47636;BME280;33364;50.766;15.338;2024-01-27T00:31:00;95798.63;;;1.45;81.49
47636;BME280;33364;50.766;15.338;2024-01-27T00:33:26;95803.81;;;1.45;80.50
47636;BME280;33364;50.766;15.338;2024-01-27T00:35:51;95814.81;;;1.47;81.28
47636;BME280;33364;50.766;15.338;2024-01-27T00:38:17;95810.03;;;1.44;79.06
47636;BME280;33364;50.766;15.338;2024-01-27T00:40:43;95819.06;;;1.42;77.82
47636;BME280;33364;50.766;15.338;2024-01-27T00:43:09;95819.84;;;1.42;78.15
47636;BME280;33364;50.766;15.338;2024-01-27T00:45:35;95824.84;;;1.44;78.25
47636;BME280;33364;50.766;15.338;2024-01-27T00:48:01;95825.06;;;1.42;77.79
47636;BME280;33364;50.766;15.338;2024-01-27T00:50:26;95819.28;;;1.34;77.25
47636;BME280;33364;50.766;15.338;2024-01-27T00:52:52;95824.28;;;1.28;78.44
47636;BME280;33364;50.766;15.338;2024-01-27T00:55:18;95811.69;;;1.32;77.81
47636;BME280;33364;50.766;15.338;2024-01-27T00:57:44;95824.69;;;1.32;79.44
47636;BME280;33364;50.766;15.338;2024-01-27T01:00:10;95825.91;;;1.23;77.84
47636;BME280;33364;50.766;15.338;2024-01-27T01:02:37;95827.50;;;1.31;77.88
47636;BME280;33364;50.766;15.338;2024-01-27T01:05:03;95828.88;;;1.33;79.03
47636;BME280;33364;50.766;15.338;2024-01-27T01:07:30;95819.44;;;1.39;79.26
47636;BME280;33364;50.766;15.338;2024-01-27T01:09:56;95834.25;;;1.38;79.96
47636;BME280;33364;50.766;15.338;2024-01-27T01:12:22;95824.28;;;1.28;77.84
47636;BME280;33364;50.766;15.338;2024-01-27T01:14:48;95840.09;;;1.27;77.77
47636;BME280;33364;50.766;15.338;2024-01-27T01:17:14;95843.91;;;1.31;78.39
47636;BME280;33364;50.766;15.338;2024-01-27T01:19:40;95852.53;;;1.32;78.36
47636;BME280;33364;50.766;15.338;2024-01-27T01:22:07;95849.69;;;1.33;78.50
47636;BME280;33364;50.766;15.338;2024-01-27T01:24:32;95854.91;;;1.33;77.89
47636;BME280;33364;50.766;15.338;2024-01-27T01:26:59;95845.72;;;1.31;77.36
47636;BME280;33364;50.766;15.338;2024-01-27T01:29:24;95865.13;;;1.28;77.40
47636;BME280;33364;50.766;15.338;2024-01-27T01:31:50;95856.94;;;1.24;78.59
47636;BME280;33364;50.766;15.338;2024-01-27T01:34:16;95868.31;;;1.30;77.98
47636;BME280;33364;50.766;15.338;2024-01-27T01:36:42;95863.75;;;1.25;77.23
47636;BME280;33364;50.766;15.338;2024-01-27T01:39:10;95853.34;;;1.25;76.82
47636;BME280;33364;50.766;15.338;2024-01-27T01:41:36;95870.56;;;1.20;76.86
47636;BME280;33364;50.766;15.338;2024-01-27T01:44:02;95863.34;;;1.22;76.74
47636;BME280;33364;50.766;15.338;2024-01-27T01:46:28;95854.16;;;1.13;75.91
47636;BME280;33364;50.766;15.338;2024-01-27T01:48:54;95863.16;;;1.17;76.16
47636;BME280;33364;50.766;15.338;2024-01-27T01:51:20;95861.75;;;1.21;77.92
47636;BME280;33364;50.766;15.338;2024-01-27T01:53:48;95855.34;;;1.23;78.91
47636;BME280;33364;50.766;15.338;2024-01-27T01:56:15;95876.56;;;1.14;78.58
47636;BME280;33364;50.766;15.338;2024-01-27T01:58:41;95876.16;;;1.17;78.96
47636;BME280;33364;50.766;15.338;2024-01-27T02:01:07;95890.75;;;1.18;79.72
47636;BME280;33364;50.766;15.338;2024-01-27T02:03:33;95895.38;;;1.16;78.05
47636;BME280;33364;50.766;15.338;2024-01-27T02:05:59;95884.94;;;1.29;77.72
47636;BME280;33364;50.766;15.338;2024-01-27T02:08:24;95894.97;;;1.19;78.32
47636;BME280;33364;50.766;15.338;2024-01-27T02:10:50;95906.38;;;1.18;78.80
47636;BME280;33364;50.766;15.338;2024-01-27T02:15:44;95895.59;;;1.14;76.72
47636;BME280;33364;50.766;15.338;2024-01-27T02:18:10;95890.19;;;1.16;78.11
47636;BME280;33364;50.766;15.338;2024-01-27T02:20:36;95889.16;;;1.23;78.05
47636;BME280;33364;50.766;15.338;2024-01-27T02:23:03;95897.56;;;1.25;79.15
47636;BME280;33364;50.766;15.338;2024-01-27T02:25:34;95906.59;;;1.10;77.46
47636;BME280;33364;50.766;15.338;2024-01-27T02:28:00;95896.78;;;1.18;78.14
47636;BME280;33364;50.766;15.338;2024-01-27T02:30:26;95894.78;;;1.20;78.27
47636;BME280;33364;50.766;15.338;2024-01-27T02:32:52;95879.97;;;1.21;77.68
47636;BME280;33364;50.766;15.338;2024-01-27T02:35:18;95879.97;;;1.08;76.89
47636;BME280;33364;50.766;15.338;2024-01-27T02:37:43;95888.16;;;1.11;77.32
47636;BME280;33364;50.766;15.338;2024-01-27T02:40:10;95890.75;;;1.18;77.58
47636;BME280;33364;50.766;15.338;2024-01-27T02:42:36;95883.16;;;1.23;77.39
47636;BME280;33364;50.766;15.338;2024-01-27T02:45:03;95885.38;;;1.19;76.63
47636;BME280;33364;50.766;15.338;2024-01-27T02:47:29;95890.78;;;1.11;75.44
47636;BME280;33364;50.766;15.338;2024-01-27T02:49:55;95899.16;;;1.26;77.24
47636;BME280;33364;50.766;15.338;2024-01-27T02:52:20;95898.75;;;1.16;76.12
47636;BME280;33364;50.766;15.338;2024-01-27T02:54:46;95895.38;;;1.16;77.40
47636;BME280;33364;50.766;15.338;2024-01-27T02:57:12;95905.56;;;1.17;78.79
47636;BME280;33364;50.766;15.338;2024-01-27T02:59:38;95899.00;;;1.15;78.63
47636;BME280;33364;50.766;15.338;2024-01-27T03:02:05;95888.59;;;1.15;77.81
47636;BME280;33364;50.766;15.338;2024-01-27T03:04:31;95909.59;;;1.07;78.23
47636;BME280;33364;50.766;15.338;2024-01-27T03:06:57;95910.00;;;1.10;78.34
47636;BME280;33364;50.766;15.338;2024-01-27T03:09:23;95902.38;;;1.15;77.59
47636;BME280;33364;50.766;15.338;2024-01-27T03:11:48;95908.59;;;1.01;75.60
47636;BME280;33364;50.766;15.338;2024-01-27T03:14:14;95896.78;;;1.12;76.50
47636;BME280;33364;50.766;15.338;2024-01-27T03:16:40;95903.00;;;1.04;76.59
47636;BME280;33364;50.766;15.338;2024-01-27T03:19:06;95891.81;;;1.04;77.61
47636;BME280;33364;50.766;15.338;2024-01-27T03:21:32;95892.00;;;1.09;77.48
47636;BME280;33364;50.766;15.338;2024-01-27T03:23:58;95900.97;;;1.06;77.18
47636;BME280;33364;50.766;15.338;2024-01-27T03:26:24;95892.81;;;1.03;76.24
47636;BME280;33364;50.766;15.338;2024-01-27T03:28:50;95898.00;;;0.96;76.70
47636;BME280;33364;50.766;15.338;2024-01-27T03:31:16;95905.22;;;0.94;76.50
47636;BME280;33364;50.766;15.338;2024-01-27T03:33:42;95897.63;;;0.93;77.95
47636;BME280;33364;50.766;15.338;2024-01-27T03:36:12;95907.59;;;1.02;79.39
47636;BME280;33364;50.766;15.338;2024-01-27T03:38:39;95908.41;;;1.03;78.52
47636;BME280;33364;50.766;15.338;2024-01-27T03:41:05;95906.84;;;0.95;77.63
47636;BME280;33364;50.766;15.338;2024-01-27T03:43:33;95904.81;;;1.04;78.20
47636;BME280;33364;50.766;15.338;2024-01-27T03:45:59;95918.59;;;1.04;78.78
47636;BME280;33364;50.766;15.338;2024-01-27T03:48:25;95924.00;;;1.03;78.42
47636;BME280;33364;50.766;15.338;2024-01-27T03:50:51;95933.22;;;1.05;76.20
47636;BME280;33364;50.766;15.338;2024-01-27T03:53:17;95924.00;;;1.03;77.51
47636;BME280;33364;50.766;15.338;2024-01-27T03:55:43;95938.41;;;0.99;76.69
47636;BME280;33364;50.766;15.338;2024-01-27T03:58:09;95935.41;;;1.08;79.00
47636;BME280;33364;50.766;15.338;2024-01-27T04:00:34;95951.00;;;1.08;78.56
47636;BME280;33364;50.766;15.338;2024-01-27T04:03:04;95943.00;;;1.10;77.48
47636;BME280;33364;50.766;15.338;2024-01-27T04:05:30;95953.22;;;0.98;76.95
47636;BME280;33364;50.766;15.338;2024-01-27T04:07:56;95942.00;;;0.98;76.95
47636;BME280;33364;50.766;15.338;2024-01-27T04:10:22;95949.22;;;0.96;76.63
47636;BME280;33364;50.766;15.338;2024-01-27T04:12:49;95952.00;;;1.07;80.07
47636;BME280;33364;50.766;15.338;2024-01-27T04:15:15;95964.81;;;1.09;79.31
47636;BME280;33364;50.766;15.338;2024-01-27T04:17:41;95972.41;;;1.17;80.28
47636;BME280;33364;50.766;15.338;2024-01-27T04:20:08;95965.22;;;1.19;79.01
47636;BME280;33364;50.766;15.338;2024-01-27T04:22:35;95980.44;;;1.09;78.52
47636;BME280;33364;50.766;15.338;2024-01-27T04:25:00;95964.81;;;1.15;80.21
47636;BME280;33364;50.766;15.338;2024-01-27T04:27:27;95969.63;;;1.05;78.34
47636;BME280;33364;50.766;15.338;2024-01-27T04:29:53;95989.63;;;1.05;78.57
47636;BME280;33364;50.766;15.338;2024-01-27T04:32:19;95975.22;;;1.09;76.86
47636;BME280;33364;50.766;15.338;2024-01-27T04:34:47;95974.03;;;0.98;77.49
47636;BME280;33364;50.766;15.338;2024-01-27T04:37:13;95979.22;;;0.85;79.45
47636;BME280;33364;50.766;15.338;2024-01-27T04:39:39;95978.41;;;0.91;79.75
47636;BME280;33364;50.766;15.338;2024-01-27T04:42:05;95977.22;;;0.94;80.34
47636;BME280;33364;50.766;15.338;2024-01-27T04:44:34;95976.22;;;0.95;79.06
47636;BME280;33364;50.766;15.338;2024-01-27T04:47:00;95982.22;;;1.02;80.41
47636;BME280;33364;50.766;15.338;2024-01-27T04:49:27;95981.22;;;0.96;79.23
47636;BME280;33364;50.766;15.338;2024-01-27T04:51:53;95989.03;;;1.03;80.09
47636;BME280;33364;50.766;15.338;2024-01-27T04:54:18;95995.44;;;1.00;78.84
47636;BME280;33364;50.766;15.338;2024-01-27T04:56:44;95995.44;;;1.00;80.59
47636;BME280;33364;50.766;15.338;2024-01-27T04:59:10;95992.03;;;0.93;79.53
47636;BME280;33364;50.766;15.338;2024-01-27T05:01:36;95999.63;;;0.95;80.95
47636;BME280;33364;50.766;15.338;2024-01-27T05:04:01;95994.81;;;0.92;79.82
47636;BME280;33364;50.766;15.338;2024-01-27T05:06:27;95990.44;;;0.99;79.98
47636;BME280;33364;50.766;15.338;2024-01-27T05:08:53;95984.84;;;0.89;78.67
47636;BME280;33364;50.766;15.338;2024-01-27T05:11:29;96000.63;;;0.94;79.71
47636;BME280;33364;50.766;15.338;2024-01-27T05:13:55;95993.22;;;0.91;77.65
47636;BME280;33364;50.766;15.338;2024-01-27T05:16:21;96001.63;;;0.93;80.22
47636;BME280;33364;50.766;15.338;2024-01-27T05:18:47;96000.00;;;0.85;80.02
47636;BME280;33364;50.766;15.338;2024-01-27T05:21:14;95992.41;;;0.90;80.42
47636;BME280;33364;50.766;15.338;2024-01-27T05:23:40;95994.03;;;0.78;79.77
47636;BME280;33364;50.766;15.338;2024-01-27T05:26:06;95989.22;;;0.81;81.10
47636;BME280;33364;50.766;15.338;2024-01-27T05:28:31;95997.63;;;0.83;80.83
47636;BME280;33364;50.766;15.338;2024-01-27T05:30:57;95996.84;;;0.90;80.96
47636;BME280;33364;50.766;15.338;2024-01-27T05:33:23;95994.44;;;0.95;80.89
47636;BME280;33364;50.766;15.338;2024-01-27T05:35:49;95998.41;;;0.91;78.76
47636;BME280;33364;50.766;15.338;2024-01-27T05:38:15;96002.41;;;0.80;78.02
47636;BME280;33364;50.766;15.338;2024-01-27T05:40:42;96008.81;;;0.77;79.24
47636;BME280;33364;50.766;15.338;2024-01-27T05:43:08;96014.41;;;0.81;78.22
47636;BME280;33364;50.766;15.338;2024-01-27T05:45:34;95995.22;;;0.82;79.01
47636;BME280;33364;50.766;15.338;2024-01-27T05:47:59;96000.81;;;0.85;79.35
47636;BME280;33364;50.766;15.338;2024-01-27T05:50:26;95997.22;;;0.87;79.91
47636;BME280;33364;50.766;15.338;2024-01-27T05:52:51;95988.59;;;0.79;78.84
47636;BME280;33364;50.766;15.338;2024-01-27T05:55:17;95998.44;;;0.84;79.63
47636;BME280;33364;50.766;15.338;2024-01-27T05:57:43;95997.22;;;0.87;79.68
47636;BME280;33364;50.766;15.338;2024-01-27T06:00:09;96005.63;;;0.89;80.30
47636;BME280;33364;50.766;15.338;2024-01-27T06:02:35;96017.22;;;0.93;78.38
47636;BME280;33364;50.766;15.338;2024-01-27T06:05:02;96014.44;;;0.88;78.91
47636;BME280;33364;50.766;15.338;2024-01-27T06:07:28;96019.41;;;0.82;79.00
47636;BME280;33364;50.766;15.338;2024-01-27T06:09:54;96022.84;;;0.90;80.23
47636;BME280;33364;50.766;15.338;2024-01-27T06:12:20;96037.63;;;0.96;79.81
47636;BME280;33364;50.766;15.338;2024-01-27T06:14:46;96036.41;;;0.78;78.20
47636;BME280;33364;50.766;15.338;2024-01-27T06:17:11;96038.00;;;0.79;78.78
47636;BME280;33364;50.766;15.338;2024-01-27T06:19:40;96043.63;;;0.90;78.41
47636;BME280;33364;50.766;15.338;2024-01-27T06:22:06;96043.44;;;0.84;78.85
47636;BME280;33364;50.766;15.338;2024-01-27T06:24:32;96041.81;;;0.97;80.03
47636;BME280;33364;50.766;15.338;2024-01-27T06:26:57;96050.63;;;0.96;78.00
47636;BME280;33364;50.766;15.338;2024-01-27T06:29:23;96063.63;;;0.89;78.49
47636;BME280;33364;50.766;15.338;2024-01-27T06:31:51;96058.81;;;0.86;78.74
47636;BME280;33364;50.766;15.338;2024-01-27T06:34:17;96044.03;;;1.00;79.88
47636;BME280;33364;50.766;15.338;2024-01-27T06:36:43;96055.25;;;1.07;79.26
47636;BME280;33364;50.766;15.338;2024-01-27T06:39:09;96047.84;;;1.04;79.75
47636;BME280;33364;50.766;15.338;2024-01-27T06:41:35;96048.84;;;1.09;80.34
47636;BME280;33364;50.766;15.338;2024-01-27T06:44:01;96038.44;;;1.03;79.58
47636;BME280;33364;50.766;15.338;2024-01-27T06:46:26;96047.22;;;1.02;77.45
47636;BME280;33364;50.766;15.338;2024-01-27T06:48:52;96049.84;;;1.08;79.30
47636;BME280;33364;50.766;15.338;2024-01-27T06:51:18;96045.63;;;1.01;78.66
47636;BME280;33364;50.766;15.338;2024-01-27T06:53:44;96052.44;;;1.02;79.37
47636;BME280;33364;50.766;15.338;2024-01-27T06:56:09;96057.84;;;0.94;79.12
47636;BME280;33364;50.766;15.338;2024-01-27T06:58:35;96063.22;;;0.85;78.38
47636;BME280;33364;50.766;15.338;2024-01-27T07:01:02;96067.63;;;0.92;79.18
47636;BME280;33364;50.766;15.338;2024-01-27T07:03:28;96065.22;;;0.97;79.42
47636;BME280;33364;50.766;15.338;2024-01-27T07:05:53;96068.84;;;1.09;81.54
47636;BME280;33364;50.766;15.338;2024-01-27T07:08:19;96062.66;;;1.10;81.07
47636;BME280;33364;50.766;15.338;2024-01-27T07:10:45;96068.66;;;1.10;79.90
47636;BME280;33364;50.766;15.338;2024-01-27T07:13:11;96070.88;;;1.20;81.96
47636;BME280;33364;50.766;15.338;2024-01-27T07:15:36;96068.06;;;1.15;79.94
47636;BME280;33364;50.766;15.338;2024-01-27T07:18:03;96064.88;;;1.19;78.14
47636;BME280;33364;50.766;15.338;2024-01-27T07:20:29;96085.25;;;1.22;80.21
47636;BME280;33364;50.766;15.338;2024-01-27T07:22:55;96091.25;;;1.16;79.10
47636;BME280;33364;50.766;15.338;2024-01-27T07:25:20;96080.47;;;1.19;80.42
47636;BME280;33364;50.766;15.338;2024-01-27T07:27:46;96094.88;;;1.15;79.77
47636;BME280;33364;50.766;15.338;2024-01-27T07:30:12;96098.88;;;1.05;80.33
47636;BME280;33364;50.766;15.338;2024-01-27T07:32:38;96095.25;;;0.99;79.89
47636;BME280;33364;50.766;15.338;2024-01-27T07:35:04;96093.44;;;0.93;79.64
47636;BME280;33364;50.766;15.338;2024-01-27T07:37:31;96125.25;;;1.02;79.90
47636;BME280;33364;50.766;15.338;2024-01-27T07:39:57;96111.25;;;0.96;79.92
47636;BME280;33364;50.766;15.338;2024-01-27T07:42:23;96115.66;;;1.02;80.77
47636;BME280;33364;50.766;15.338;2024-01-27T07:44:48;96125.66;;;0.99;81.35
47636;BME280;33364;50.766;15.338;2024-01-27T07:47:15;96125.44;;;0.94;81.29
47636;BME280;33364;50.766;15.338;2024-01-27T07:49:40;96136.22;;;0.91;82.38
47636;BME280;33364;50.766;15.338;2024-01-27T07:52:06;96138.88;;;1.04;83.39
47636;BME280;33364;50.766;15.338;2024-01-27T07:54:32;96129.28;;;1.11;83.17
47636;BME280;33364;50.766;15.338;2024-01-27T07:56:59;96132.88;;;1.10;82.93
47636;BME280;33364;50.766;15.338;2024-01-27T07:59:25;96124.88;;;1.11;81.03
47636;BME280;33364;50.766;15.338;2024-01-27T08:01:50;96132.88;;;1.10;81.92
47636;BME280;33364;50.766;15.338;2024-01-27T08:04:16;96134.09;;;1.14;81.60
47636;BME280;33364;50.766;15.338;2024-01-27T08:06:50;96137.69;;;1.13;82.11
47636;BME280;33364;50.766;15.338;2024-01-27T08:09:16;96129.66;;;1.08;81.50
47636;BME280;33364;50.766;15.338;2024-01-27T08:11:42;96134.09;;;1.14;82.08
47636;BME280;33364;50.766;15.338;2024-01-27T08:14:09;96138.53;;;1.26;83.92
47636;BME280;33364;50.766;15.338;2024-01-27T08:16:35;96140.31;;;1.33;83.21
47636;BME280;33364;50.766;15.338;2024-01-27T08:19:01;96154.94;;;1.40;83.63
47636;BME280;33364;50.766;15.338;2024-01-27T08:21:27;96151.09;;;1.16;81.06
47636;BME280;33364;50.766;15.338;2024-01-27T08:23:53;96141.91;;;1.34;81.89
47636;BME280;33364;50.766;15.338;2024-01-27T08:26:19;96154.75;;;1.35;81.61
47636;BME280;33364;50.766;15.338;2024-01-27T08:28:46;96157.50;;;1.27;80.73
47636;BME280;33364;50.766;15.338;2024-01-27T08:31:12;96154.13;;;1.26;81.02
47636;BME280;33364;50.766;15.338;2024-01-27T08:33:38;96162.13;;;1.38;81.62
47636;BME280;33364;50.766;15.338;2024-01-27T08:36:04;96171.31;;;1.27;81.03
47636;BME280;33364;50.766;15.338;2024-01-27T08:38:30;96167.50;;;1.17;81.28
47636;BME280;33364;50.766;15.338;2024-01-27T08:40:56;96169.94;;;1.25;82.10
47636;BME280;33364;50.766;15.338;2024-01-27T08:43:22;96173.56;;;1.31;82.59
47636;BME280;33364;50.766;15.338;2024-01-27T08:45:48;96182.56;;;1.41;83.42
47636;BME280;33364;50.766;15.338;2024-01-27T08:48:13;96180.16;;;1.40;82.26
47636;BME280;33364;50.766;15.338;2024-01-27T08:50:40;96184.78;;;1.44;81.91
47636;BME280;33364;50.766;15.338;2024-01-27T08:53:06;96188.19;;;1.51;82.39
47636;BME280;33364;50.766;15.338;2024-01-27T08:55:32;96194.19;;;1.52;81.85
47636;BME280;33364;50.766;15.338;2024-01-27T08:57:58;96206.22;;;1.46;80.79
47636;BME280;33364;50.766;15.338;2024-01-27T09:00:23;96207.00;;;1.47;82.48
47636;BME280;33364;50.766;15.338;2024-01-27T09:02:51;96216.81;;;1.45;81.33
47636;BME280;33364;50.766;15.338;2024-01-27T09:05:17;96208.41;;;1.49;81.02
47636;BME280;33364;50.766;15.338;2024-01-27T09:07:43;96213.22;;;1.52;81.50
47636;BME280;33364;50.766;15.338;2024-01-27T09:10:09;96228.63;;;1.47;81.48
47636;BME280;33364;50.766;15.338;2024-01-27T09:12:37;96233.44;;;1.50;80.99
47636;BME280;33364;50.766;15.338;2024-01-27T09:15:04;96226.78;;;1.35;81.29
47636;BME280;33364;50.766;15.338;2024-01-27T09:17:31;96233.44;;;1.50;82.80
47636;BME280;33364;50.766;15.338;2024-01-27T09:19:57;96243.44;;;1.47;81.62
47636;BME280;33364;50.766;15.338;2024-01-27T09:22:23;96253.44;;;1.50;81.54
47636;BME280;33364;50.766;15.338;2024-01-27T09:24:49;96242.03;;;1.44;81.12
47636;BME280;33364;50.766;15.338;2024-01-27T09:27:14;96235.81;;;1.39;80.88
47636;BME280;33364;50.766;15.338;2024-01-27T09:29:40;96241.25;;;1.50;80.22
47636;BME280;33364;50.766;15.338;2024-01-27T09:32:06;96244.25;;;1.47;80.82
47636;BME280;33364;50.766;15.338;2024-01-27T09:34:32;96241.06;;;1.52;80.94
47636;BME280;33364;50.766;15.338;2024-01-27T09:36:57;96247.47;;;1.62;81.42
47636;BME280;33364;50.766;15.338;2024-01-27T09:39:23;96242.66;;;1.59;80.30
47636;BME280;33364;50.766;15.338;2024-01-27T09:41:50;96236.63;;;1.46;80.73
47636;BME280;33364;50.766;15.338;2024-01-27T09:44:18;96243.47;;;1.53;80.75
47636;BME280;33364;50.766;15.338;2024-01-27T09:46:45;96245.06;;;1.48;81.34
47636;BME280;33364;50.766;15.338;2024-01-27T09:49:12;96253.69;;;1.61;81.30
47636;BME280;33364;50.766;15.338;2024-01-27T09:51:40;96248.28;;;1.69;81.88
47636;BME280;33364;50.766;15.338;2024-01-27T09:54:06;96259.50;;;1.77;82.10
47636;BME280;33364;50.766;15.338;2024-01-27T09:56:32;96252.28;;;1.65;79.51
47636;BME280;33364;50.766;15.338;2024-01-27T09:58:58;96253.06;;;1.59;80.21
47636;BME280;33364;50.766;15.338;2024-01-27T10:01:24;96256.72;;;1.78;80.66
47636;BME280;33364;50.766;15.338;2024-01-27T10:03:54;96259.31;;;1.72;80.61
47636;BME280;33364;50.766;15.338;2024-01-27T10:06:20;96263.72;;;1.78;81.22
47636;BME280;33364;50.766;15.338;2024-01-27T10:08:54;96267.31;;;1.77;78.80
47636;BME280;33364;50.766;15.338;2024-01-27T10:11:21;96277.16;;;1.88;82.31
47636;BME280;33364;50.766;15.338;2024-01-27T10:13:55;96270.53;;;1.79;80.05
47636;BME280;33364;50.766;15.338;2024-01-27T10:16:28;96280.19;;;1.85;81.33
47636;BME280;33364;50.766;15.338;2024-01-27T10:19:03;96275.53;;;1.80;80.50
47636;BME280;33364;50.766;15.338;2024-01-27T10:21:29;96272.31;;;1.72;79.75
47636;BME280;33364;50.766;15.338;2024-01-27T10:23:55;96272.38;;;1.85;80.26
47636;BME280;33364;50.766;15.338;2024-01-27T10:26:21;96275.16;;;1.90;79.98
47636;BME280;33364;50.766;15.338;2024-01-27T10:28:56;96275.16;;;1.90;80.74
47636;BME280;33364;50.766;15.338;2024-01-27T10:31:34;96282.78;;;1.85;79.72
47636;BME280;33364;50.766;15.338;2024-01-27T10:34:02;96276.16;;;1.89;80.30
47636;BME280;33364;50.766;15.338;2024-01-27T10:36:43;96266.72;;;1.81;79.88
47636;BME280;33364;50.766;15.338;2024-01-27T10:39:20;96279.97;;;1.80;80.03
47636;BME280;33364;50.766;15.338;2024-01-27T10:41:47;96288.78;;;1.79;80.74
47636;BME280;33364;50.766;15.338;2024-01-27T10:44:14;96284.34;;;1.86;81.29
47636;BME280;33364;50.766;15.338;2024-01-27T10:46:43;96284.16;;;1.87;80.90
47636;BME280;33364;50.766;15.338;2024-01-27T10:49:12;96282.56;;;1.86;81.42
47636;BME280;33364;50.766;15.338;2024-01-27T10:51:43;96273.56;;;1.89;82.47
47636;BME280;33364;50.766;15.338;2024-01-27T10:54:14;96284.78;;;1.96;82.80
47636;BME280;33364;50.766;15.338;2024-01-27T10:56:40;96283.19;;;1.95;82.76
47636;BME280;33364;50.766;15.338;2024-01-27T10:59:09;96290.41;;;2.06;83.03
47636;BME280;33364;50.766;15.338;2024-01-27T11:01:36;96281.19;;;2.03;82.06
47636;BME280;33364;50.766;15.338;2024-01-27T11:04:04;96295.59;;;1.93;81.12
47636;BME280;33364;50.766;15.338;2024-01-27T11:06:32;96276.53;;;1.86;82.51
47636;BME280;33364;50.766;15.338;2024-01-27T11:08:59;96276.38;;;1.94;83.54
47636;BME280;33364;50.766;15.338;2024-01-27T11:11:25;96277.19;;;2.01;82.80
47636;BME280;33364;50.766;15.338;2024-01-27T11:13:51;96263.13;;;2.02;82.75
47636;BME280;33364;50.766;15.338;2024-01-27T11:16:18;96274.75;;;1.86;80.76
47636;BME280;33364;50.766;15.338;2024-01-27T11:18:45;96285.16;;;1.86;81.54
47636;BME280;33364;50.766;15.338;2024-01-27T11:21:15;96284.34;;;1.86;82.27
47636;BME280;33364;50.766;15.338;2024-01-27T11:23:44;96285.97;;;1.87;82.97
47636;BME280;33364;50.766;15.338;2024-01-27T11:26:21;96288.59;;;1.93;82.81
47636;BME280;33364;50.766;15.338;2024-01-27T11:28:48;96283.19;;;2.08;84.04
47636;BME280;33364;50.766;15.338;2024-01-27T11:31:17;96286.81;;;2.13;82.40
47636;BME280;33364;50.766;15.338;2024-01-27T11:33:47;96287.63;;;2.01;81.02
47636;BME280;33364;50.766;15.338;2024-01-27T11:36:21;96296.00;;;2.03;82.65
47636;BME280;33364;50.766;15.338;2024-01-27T11:38:50;96301.63;;;2.13;83.51
47636;BME280;33364;50.766;15.338;2024-01-27T11:41:26;96292.22;;;1.99;81.39
47636;BME280;33364;50.766;15.338;2024-01-27T11:43:54;96301.63;;;2.06;82.79
47636;BME280;33364;50.766;15.338;2024-01-27T11:46:20;96295.19;;;1.96;82.21
47636;BME280;33364;50.766;15.338;2024-01-27T11:48:46;96292.41;;;2.17;82.27
47636;BME280;33364;50.766;15.338;2024-01-27T11:51:12;96301.22;;;2.23;82.44
47636;BME280;33364;50.766;15.338;2024-01-27T11:53:38;96288.00;;;2.24;82.67
47636;BME280;33364;50.766;15.338;2024-01-27T11:56:04;96299.22;;;2.18;81.19
47636;BME280;33364;50.766;15.338;2024-01-27T11:58:31;96302.66;;;2.32;81.29
47636;BME280;33364;50.766;15.338;2024-01-27T12:00:57;96299.25;;;2.31;83.28
47636;BME280;33364;50.766;15.338;2024-01-27T12:03:24;96294.84;;;2.25;81.65
47636;BME280;33364;50.766;15.338;2024-01-27T12:05:50;96303.03;;;2.09;81.87
47636;BME280;33364;50.766;15.338;2024-01-27T12:08:17;96323.09;;;2.15;81.56
47636;BME280;33364;50.766;15.338;2024-01-27T12:10:42;96314.41;;;1.82;81.63
47636;BME280;33364;50.766;15.338;2024-01-27T12:13:09;96311.25;;;2.06;82.51
47636;BME280;33364;50.766;15.338;2024-01-27T12:15:35;96327.09;;;2.18;82.67
47636;BME280;33364;50.766;15.338;2024-01-27T12:18:01;96322.88;;;2.10;82.54
47636;BME280;33364;50.766;15.338;2024-01-27T12:20:29;96314.84;;;2.11;82.32
47636;BME280;33364;50.766;15.338;2024-01-27T12:23:06;96322.09;;;2.16;82.16
47636;BME280;33364;50.766;15.338;2024-01-27T12:25:32;96312.03;;;2.06;81.30
47636;BME280;33364;50.766;15.338;2024-01-27T12:28:02;96318.81;;;1.81;80.96
47636;BME280;33364;50.766;15.338;2024-01-27T12:30:28;96316.03;;;2.02;81.90
47636;BME280;33364;50.766;15.338;2024-01-27T12:32:54;96321.47;;;2.14;81.69
47636;BME280;33364;50.766;15.338;2024-01-27T12:35:19;96306.44;;;2.03;80.37
47636;BME280;33364;50.766;15.338;2024-01-27T12:37:46;96317.06;;;2.15;81.14
47636;BME280;33364;50.766;15.338;2024-01-27T12:40:19;96315.66;;;2.19;80.36
47636;BME280;33364;50.766;15.338;2024-01-27T12:42:46;96319.28;;;2.24;82.01
47636;BME280;33364;50.766;15.338;2024-01-27T12:45:12;96323.09;;;2.22;80.76
47636;BME280;33364;50.766;15.338;2024-01-27T12:47:39;96323.66;;;2.17;80.48
47636;BME280;33364;50.766;15.338;2024-01-27T12:50:05;96318.09;;;2.20;80.39
47636;BME280;33364;50.766;15.338;2024-01-27T12:52:32;96328.06;;;2.03;80.32
47636;BME280;33364;50.766;15.338;2024-01-27T12:54:58;96326.91;;;2.06;81.36
47636;BME280;33364;50.766;15.338;2024-01-27T12:57:24;96323.47;;;2.05;81.66
47636;BME280;33364;50.766;15.338;2024-01-27T12:59:50;96326.50;;;2.16;81.44